sensor_id;sensor_type;location;lat;lon;timestamp;temperature;humidity
72114;SHT31;59989;46.220;19.888;2023-10-09T00:01:19;8.14;79.62
72114;SHT31;59989;46.220;19.888;2023-10-09T00:04:22;8.06;79.97
72114;SHT31;59989;46.220;19.888;2023-10-09T00:07:25;8.00;79.91
72114;SHT31;59989;46.220;19.888;2023-10-09T00:10:28;7.99;80.03
72114;SHT31;59989;46.220;19.888;2023-10-09T00:13:47;7.95;80.16
72114;SHT31;59989;46.220;19.888;2023-10-09T00:16:53;7.99;79.86
72114;SHT31;59989;46.220;19.888;2023-10-09T00:20:07;7.95;80.11
72114;SHT31;59989;46.220;19.888;2023-10-09T00:23:25;8.02;78.82
72114;SHT31;59989;46.220;19.888;2023-10-09T00:26:28;7.93;79.32
72114;SHT31;59989;46.220;19.888;2023-10-09T00:29:33;7.86;78.62
72114;SHT31;59989;46.220;19.888;2023-10-09T00:32:37;7.82;78.04
72114;SHT31;59989;46.220;19.888;2023-10-09T00:35:45;7.74;78.31
72114;SHT31;59989;46.220;19.888;2023-10-09T00:38:47;7.77;77.37
72114;SHT31;59989;46.220;19.888;2023-10-09T00:41:54;7.77;76.80
72114;SHT31;59989;46.220;19.888;2023-10-09T00:44:57;7.61;77.43
72114;SHT31;59989;46.220;19.888;2023-10-09T00:48:07;7.47;77.25
72114;SHT31;59989;46.220;19.888;2023-10-09T00:51:11;7.54;75.07
72114;SHT31;59989;46.220;19.888;2023-10-09T00:54:21;7.69;73.64
72114;SHT31;59989;46.220;19.888;2023-10-09T00:57:29;7.65;73.70
72114;SHT31;59989;46.220;19.888;2023-10-09T01:00:35;7.52;73.39
72114;SHT31;59989;46.220;19.888;2023-10-09T01:03:47;7.52;73.71
72114;SHT31;59989;46.220;19.888;2023-10-09T01:06:54;7.44;74.07
72114;SHT31;59989;46.220;19.888;2023-10-09T01:10:17;7.41;73.44
72114;SHT31;59989;46.220;19.888;2023-10-09T01:13:20;7.38;73.06
72114;SHT31;59989;46.220;19.888;2023-10-09T01:16:31;7.30;73.15
72114;SHT31;59989;46.220;19.888;2023-10-09T01:19:34;7.31;72.71
72114;SHT31;59989;46.220;19.888;2023-10-09T01:22:36;7.30;72.68
72114;SHT31;59989;46.220;19.888;2023-10-09T01:25:39;7.34;72.89
72114;SHT31;59989;46.220;19.888;2023-10-09T01:28:46;7.41;72.98
72114;SHT31;59989;46.220;19.888;2023-10-09T01:31:51;7.47;74.35
72114;SHT31;59989;46.220;19.888;2023-10-09T01:34:58;7.46;74.03
72114;SHT31;59989;46.220;19.888;2023-10-09T01:38:00;7.35;73.83
72114;SHT31;59989;46.220;19.888;2023-10-09T01:41:03;7.26;73.40
72114;SHT31;59989;46.220;19.888;2023-10-09T01:44:10;7.16;73.79
72114;SHT31;59989;46.220;19.888;2023-10-09T01:47:15;7.17;73.46
72114;SHT31;59989;46.220;19.888;2023-10-09T01:50:20;7.07;74.68
72114;SHT31;59989;46.220;19.888;2023-10-09T01:53:37;7.01;74.84
72114;SHT31;59989;46.220;19.888;2023-10-09T01:56:40;6.97;75.94
72114;SHT31;59989;46.220;19.888;2023-10-09T01:59:49;6.92;74.26
72114;SHT31;59989;46.220;19.888;2023-10-09T02:02:52;6.90;75.54
72114;SHT31;59989;46.220;19.888;2023-10-09T02:05:55;6.96;73.46
72114;SHT31;59989;46.220;19.888;2023-10-09T02:09:05;6.89;75.78
72114;SHT31;59989;46.220;19.888;2023-10-09T02:12:09;6.85;76.14
72114;SHT31;59989;46.220;19.888;2023-10-09T02:15:11;6.97;75.93
72114;SHT31;59989;46.220;19.888;2023-10-09T02:18:20;7.00;75.61
72114;SHT31;59989;46.220;19.888;2023-10-09T02:21:25;6.92;75.74
72114;SHT31;59989;46.220;19.888;2023-10-09T02:24:31;6.82;76.30
72114;SHT31;59989;46.220;19.888;2023-10-09T02:27:53;6.95;75.50
72114;SHT31;59989;46.220;19.888;2023-10-09T02:30:56;6.95;76.40
72114;SHT31;59989;46.220;19.888;2023-10-09T02:34:03;6.93;75.70
72114;SHT31;59989;46.220;19.888;2023-10-09T02:37:14;6.86;76.12
72114;SHT31;59989;46.220;19.888;2023-10-09T02:40:28;6.83;76.29
72114;SHT31;59989;46.220;19.888;2023-10-09T02:43:36;6.83;76.53
72114;SHT31;59989;46.220;19.888;2023-10-09T02:46:53;6.82;76.47
72114;SHT31;59989;46.220;19.888;2023-10-09T02:50:00;6.78;76.99
72114;SHT31;59989;46.220;19.888;2023-10-09T02:53:09;6.95;75.90
72114;SHT31;59989;46.220;19.888;2023-10-09T02:56:12;6.96;76.49
72114;SHT31;59989;46.220;19.888;2023-10-09T02:59:15;6.92;75.63
72114;SHT31;59989;46.220;19.888;2023-10-09T03:02:18;6.89;76.46
72114;SHT31;59989;46.220;19.888;2023-10-09T03:05:21;6.92;76.12
72114;SHT31;59989;46.220;19.888;2023-10-09T03:08:24;6.90;76.50
72114;SHT31;59989;46.220;19.888;2023-10-09T03:11:27;6.89;77.46
72114;SHT31;59989;46.220;19.888;2023-10-09T03:14:35;6.85;77.65
72114;SHT31;59989;46.220;19.888;2023-10-09T03:17:40;6.68;77.66
72114;SHT31;59989;46.220;19.888;2023-10-09T03:20:45;6.58;77.74
72114;SHT31;59989;46.220;19.888;2023-10-09T03:23:49;6.48;78.54
72114;SHT31;59989;46.220;19.888;2023-10-09T03:26:52;6.41;79.00
72114;SHT31;59989;46.220;19.888;2023-10-09T03:29:58;6.38;79.03
72114;SHT31;59989;46.220;19.888;2023-10-09T03:33:00;6.34;78.96
72114;SHT31;59989;46.220;19.888;2023-10-09T03:36:05;6.44;77.62
72114;SHT31;59989;46.220;19.888;2023-10-09T03:39:14;6.59;77.15
72114;SHT31;59989;46.220;19.888;2023-10-09T03:42:35;6.59;76.69
72114;SHT31;59989;46.220;19.888;2023-10-09T03:45:39;6.59;76.93
72114;SHT31;59989;46.220;19.888;2023-10-09T03:48:48;6.53;77.90
72114;SHT31;59989;46.220;19.888;2023-10-09T03:51:52;6.53;77.23
72114;SHT31;59989;46.220;19.888;2023-10-09T03:54:55;6.53;78.43
72114;SHT31;59989;46.220;19.888;2023-10-09T03:57:57;6.56;79.31
72114;SHT31;59989;46.220;19.888;2023-10-09T04:01:07;6.61;79.17
72114;SHT31;59989;46.220;19.888;2023-10-09T04:04:10;6.64;77.78
72114;SHT31;59989;46.220;19.888;2023-10-09T04:07:17;6.75;77.19
72114;SHT31;59989;46.220;19.888;2023-10-09T04:10:20;6.82;77.19
72114;SHT31;59989;46.220;19.888;2023-10-09T04:13:40;6.79;74.91
72114;SHT31;59989;46.220;19.888;2023-10-09T04:16:43;6.86;77.13
72114;SHT31;59989;46.220;19.888;2023-10-09T04:19:55;6.64;76.87
72114;SHT31;59989;46.220;19.888;2023-10-09T04:23:16;6.48;78.86
72114;SHT31;59989;46.220;19.888;2023-10-09T04:26:36;6.45;78.89
72114;SHT31;59989;46.220;19.888;2023-10-09T04:29:39;6.45;79.77
72114;SHT31;59989;46.220;19.888;2023-10-09T04:32:42;6.44;78.96
72114;SHT31;59989;46.220;19.888;2023-10-09T04:35:47;6.56;77.84
72114;SHT31;59989;46.220;19.888;2023-10-09T04:39:10;6.59;76.75
72114;SHT31;59989;46.220;19.888;2023-10-09T04:42:14;6.72;76.69
72114;SHT31;59989;46.220;19.888;2023-10-09T04:45:38;6.79;76.12
72114;SHT31;59989;46.220;19.888;2023-10-09T04:49:00;6.95;76.92
72114;SHT31;59989;46.220;19.888;2023-10-09T04:52:19;6.99;76.21
72114;SHT31;59989;46.220;19.888;2023-10-09T04:55:31;7.10;76.56
72114;SHT31;59989;46.220;19.888;2023-10-09T04:58:41;7.16;75.84
72114;SHT31;59989;46.220;19.888;2023-10-09T05:01:44;7.24;75.20
72114;SHT31;59989;46.220;19.888;2023-10-09T05:05:00;7.31;75.43
72114;SHT31;59989;46.220;19.888;2023-10-09T05:08:40;7.43;75.78
72114;SHT31;59989;46.220;19.888;2023-10-09T05:11:48;7.44;74.71
72114;SHT31;59989;46.220;19.888;2023-10-09T05:14:53;7.58;74.82
72114;SHT31;59989;46.220;19.888;2023-10-09T05:18:11;7.68;73.93
72114;SHT31;59989;46.220;19.888;2023-10-09T05:21:18;7.82;73.87
72114;SHT31;59989;46.220;19.888;2023-10-09T05:24:33;7.89;73.37
72114;SHT31;59989;46.220;19.888;2023-10-09T05:27:46;7.95;72.96
72114;SHT31;59989;46.220;19.888;2023-10-09T05:30:54;8.03;73.01
72114;SHT31;59989;46.220;19.888;2023-10-09T05:34:10;8.13;72.35
72114;SHT31;59989;46.220;19.888;2023-10-09T05:37:14;8.26;72.02
72114;SHT31;59989;46.220;19.888;2023-10-09T05:40:20;8.33;71.97
72114;SHT31;59989;46.220;19.888;2023-10-09T05:43:24;8.51;71.47
72114;SHT31;59989;46.220;19.888;2023-10-09T05:46:45;8.51;70.55
72114;SHT31;59989;46.220;19.888;2023-10-09T05:50:06;8.69;71.01
72114;SHT31;59989;46.220;19.888;2023-10-09T05:53:12;8.64;69.23
72114;SHT31;59989;46.220;19.888;2023-10-09T05:56:34;8.72;69.34
72114;SHT31;59989;46.220;19.888;2023-10-09T05:59:55;8.86;68.94
72114;SHT31;59989;46.220;19.888;2023-10-09T06:03:18;8.99;69.14
72114;SHT31;59989;46.220;19.888;2023-10-09T06:06:22;9.02;68.95
72114;SHT31;59989;46.220;19.888;2023-10-09T06:09:36;9.13;68.13
72114;SHT31;59989;46.220;19.888;2023-10-09T06:13:00;9.25;66.80
72114;SHT31;59989;46.220;19.888;2023-10-09T06:16:06;9.43;67.13
72114;SHT31;59989;46.220;19.888;2023-10-09T06:19:23;9.57;66.84
72114;SHT31;59989;46.220;19.888;2023-10-09T06:22:25;9.61;67.90
72114;SHT31;59989;46.220;19.888;2023-10-09T06:25:46;9.54;68.58
72114;SHT31;59989;46.220;19.888;2023-10-09T06:28:55;9.53;67.99
72114;SHT31;59989;46.220;19.888;2023-10-09T06:32:18;9.55;67.34
72114;SHT31;59989;46.220;19.888;2023-10-09T06:35:21;9.71;64.39
72114;SHT31;59989;46.220;19.888;2023-10-09T06:38:33;9.81;66.01
72114;SHT31;59989;46.220;19.888;2023-10-09T06:41:54;9.87;70.17
72114;SHT31;59989;46.220;19.888;2023-10-09T06:45:12;10.13;69.14
72114;SHT31;59989;46.220;19.888;2023-10-09T06:48:27;10.03;67.60
72114;SHT31;59989;46.220;19.888;2023-10-09T06:51:36;9.99;68.19
72114;SHT31;59989;46.220;19.888;2023-10-09T06:54:45;10.15;65.62
72114;SHT31;59989;46.220;19.888;2023-10-09T06:57:52;10.39;66.14
72114;SHT31;59989;46.220;19.888;2023-10-09T07:00:56;10.63;65.32
72114;SHT31;59989;46.220;19.888;2023-10-09T07:04:17;10.73;60.92
72114;SHT31;59989;46.220;19.888;2023-10-09T07:07:35;10.94;56.92
72114;SHT31;59989;46.220;19.888;2023-10-09T07:10:37;10.94;54.97
72114;SHT31;59989;46.220;19.888;2023-10-09T07:13:42;11.01;55.38
72114;SHT31;59989;46.220;19.888;2023-10-09T07:16:49;11.12;57.98
72114;SHT31;59989;46.220;19.888;2023-10-09T07:20:02;11.39;57.84
72114;SHT31;59989;46.220;19.888;2023-10-09T07:23:23;11.38;54.15
72114;SHT31;59989;46.220;19.888;2023-10-09T07:26:30;11.46;53.45
72114;SHT31;59989;46.220;19.888;2023-10-09T07:29:39;11.42;51.71
72114;SHT31;59989;46.220;19.888;2023-10-09T07:32:50;11.38;50.74
72114;SHT31;59989;46.220;19.888;2023-10-09T07:35:56;11.58;52.49
72114;SHT31;59989;46.220;19.888;2023-10-09T07:39:08;11.52;52.42
72114;SHT31;59989;46.220;19.888;2023-10-09T07:42:18;11.75;53.42
72114;SHT31;59989;46.220;19.888;2023-10-09T07:45:29;11.86;51.65
72114;SHT31;59989;46.220;19.888;2023-10-09T07:48:52;11.97;51.10
72114;SHT31;59989;46.220;19.888;2023-10-09T07:51:54;12.06;51.74
72114;SHT31;59989;46.220;19.888;2023-10-09T07:54:58;12.16;51.44
72114;SHT31;59989;46.220;19.888;2023-10-09T07:58:08;12.16;51.52
72114;SHT31;59989;46.220;19.888;2023-10-09T08:01:14;12.07;50.46
72114;SHT31;59989;46.220;19.888;2023-10-09T08:04:37;12.28;51.68
72114;SHT31;59989;46.220;19.888;2023-10-09T08:07:41;12.38;51.94
72114;SHT31;59989;46.220;19.888;2023-10-09T08:11:09;12.73;51.47
72114;SHT31;59989;46.220;19.888;2023-10-09T08:14:30;12.83;49.43
72114;SHT31;59989;46.220;19.888;2023-10-09T08:17:35;12.78;52.06
72114;SHT31;59989;46.220;19.888;2023-10-09T08:20:39;12.81;49.15
72114;SHT31;59989;46.220;19.888;2023-10-09T08:24:08;12.89;47.48
72114;SHT31;59989;46.220;19.888;2023-10-09T08:27:30;13.13;47.90
72114;SHT31;59989;46.220;19.888;2023-10-09T08:30:33;13.34;47.35
72114;SHT31;59989;46.220;19.888;2023-10-09T08:33:52;13.60;46.29
72114;SHT31;59989;46.220;19.888;2023-10-09T08:37:05;13.82;45.89
72114;SHT31;59989;46.220;19.888;2023-10-09T08:40:09;14.02;45.35
72114;SHT31;59989;46.220;19.888;2023-10-09T08:43:17;13.71;44.93
72114;SHT31;59989;46.220;19.888;2023-10-09T08:46:27;13.64;45.03
72114;SHT31;59989;46.220;19.888;2023-10-09T08:49:31;14.10;46.40
72114;SHT31;59989;46.220;19.888;2023-10-09T08:52:36;14.26;44.84
72114;SHT31;59989;46.220;19.888;2023-10-09T08:55:40;14.73;44.18
72114;SHT31;59989;46.220;19.888;2023-10-09T08:58:43;14.98;43.62
72114;SHT31;59989;46.220;19.888;2023-10-09T09:01:50;15.43;44.38
72114;SHT31;59989;46.220;19.888;2023-10-09T09:04:54;15.21;43.19
72114;SHT31;59989;46.220;19.888;2023-10-09T09:07:57;15.43;43.14
72114;SHT31;59989;46.220;19.888;2023-10-09T09:11:10;15.56;42.79
72114;SHT31;59989;46.220;19.888;2023-10-09T09:14:39;15.36;43.15
72114;SHT31;59989;46.220;19.888;2023-10-09T09:17:42;15.64;43.48
72114;SHT31;59989;46.220;19.888;2023-10-09T09:20:44;15.52;42.52
72114;SHT31;59989;46.220;19.888;2023-10-09T09:23:57;15.59;44.27
72114;SHT31;59989;46.220;19.888;2023-10-09T09:27:04;15.63;42.93
72114;SHT31;59989;46.220;19.888;2023-10-09T09:30:30;16.40;43.34
72114;SHT31;59989;46.220;19.888;2023-10-09T09:33:35;16.89;41.58
72114;SHT31;59989;46.220;19.888;2023-10-09T09:36:55;16.81;41.47
72114;SHT31;59989;46.220;19.888;2023-10-09T09:39:59;16.93;41.33
72114;SHT31;59989;46.220;19.888;2023-10-09T09:43:17;16.72;41.64
72114;SHT31;59989;46.220;19.888;2023-10-09T09:46:24;17.49;40.58
72114;SHT31;59989;46.220;19.888;2023-10-09T09:49:38;17.90;39.50
72114;SHT31;59989;46.220;19.888;2023-10-09T09:52:42;17.79;39.97
72114;SHT31;59989;46.220;19.888;2023-10-09T09:55:49;17.62;39.21
72114;SHT31;59989;46.220;19.888;2023-10-09T09:59:02;17.92;38.29
72114;SHT31;59989;46.220;19.888;2023-10-09T10:02:12;18.05;39.06
72114;SHT31;59989;46.220;19.888;2023-10-09T10:05:25;18.06;38.08
72114;SHT31;59989;46.220;19.888;2023-10-09T10:08:32;18.24;38.03
72114;SHT31;59989;46.220;19.888;2023-10-09T10:11:46;17.97;38.88
72114;SHT31;59989;46.220;19.888;2023-10-09T10:14:58;17.95;38.15
72114;SHT31;59989;46.220;19.888;2023-10-09T10:18:19;18.37;37.78
72114;SHT31;59989;46.220;19.888;2023-10-09T10:21:23;18.53;37.12
72114;SHT31;59989;46.220;19.888;2023-10-09T10:24:52;18.44;37.22
72114;SHT31;59989;46.220;19.888;2023-10-09T10:28:22;18.63;37.37
72114;SHT31;59989;46.220;19.888;2023-10-09T10:31:57;18.51;37.29
72114;SHT31;59989;46.220;19.888;2023-10-09T10:35:03;19.01;36.22
72114;SHT31;59989;46.220;19.888;2023-10-09T10:38:31;18.99;38.46
72114;SHT31;59989;46.220;19.888;2023-10-09T10:41:39;18.84;36.67
72114;SHT31;59989;46.220;19.888;2023-10-09T10:44:53;18.41;36.67
72114;SHT31;59989;46.220;19.888;2023-10-09T10:47:56;18.41;37.22
72114;SHT31;59989;46.220;19.888;2023-10-09T10:51:01;18.18;37.13
72114;SHT31;59989;46.220;19.888;2023-10-09T10:54:04;18.32;37.31
72114;SHT31;59989;46.220;19.888;2023-10-09T10:57:26;18.33;37.59
72114;SHT31;59989;46.220;19.888;2023-10-09T11:00:31;18.48;37.32
72114;SHT31;59989;46.220;19.888;2023-10-09T11:03:53;18.58;36.77
72114;SHT31;59989;46.220;19.888;2023-10-09T11:07:00;18.54;37.01
72114;SHT31;59989;46.220;19.888;2023-10-09T11:10:09;18.91;36.80
72114;SHT31;59989;46.220;19.888;2023-10-09T11:13:20;18.69;35.07
72114;SHT31;59989;46.220;19.888;2023-10-09T11:16:40;18.12;36.66
72114;SHT31;59989;46.220;19.888;2023-10-09T11:19:49;18.12;36.93
72114;SHT31;59989;46.220;19.888;2023-10-09T11:22:55;18.51;37.10
72114;SHT31;59989;46.220;19.888;2023-10-09T11:26:12;18.71;36.67
72114;SHT31;59989;46.220;19.888;2023-10-09T11:29:36;18.78;38.16
72114;SHT31;59989;46.220;19.888;2023-10-09T11:32:49;18.72;37.54
72114;SHT31;59989;46.220;19.888;2023-10-09T11:35:56;18.95;37.88
72114;SHT31;59989;46.220;19.888;2023-10-09T11:39:00;18.98;38.27
72114;SHT31;59989;46.220;19.888;2023-10-09T11:42:20;18.91;38.48
72114;SHT31;59989;46.220;19.888;2023-10-09T11:45:38;18.85;39.27
72114;SHT31;59989;46.220;19.888;2023-10-09T11:48:40;18.74;38.37
72114;SHT31;59989;46.220;19.888;2023-10-09T11:52:10;19.12;37.73
72114;SHT31;59989;46.220;19.888;2023-10-09T11:55:15;18.96;38.92
72114;SHT31;59989;46.220;19.888;2023-10-09T11:58:19;19.19;39.00
72114;SHT31;59989;46.220;19.888;2023-10-09T12:01:25;19.22;37.95
72114;SHT31;59989;46.220;19.888;2023-10-09T12:04:35;19.13;38.67
72114;SHT31;59989;46.220;19.888;2023-10-09T12:07:38;19.16;39.71
72114;SHT31;59989;46.220;19.888;2023-10-09T12:10:41;18.87;39.61
72114;SHT31;59989;46.220;19.888;2023-10-09T12:13:44;18.91;40.21
72114;SHT31;59989;46.220;19.888;2023-10-09T12:16:48;19.13;40.08
72114;SHT31;59989;46.220;19.888;2023-10-09T12:19:52;18.72;39.86
72114;SHT31;59989;46.220;19.888;2023-10-09T12:22:59;18.88;39.30
72114;SHT31;59989;46.220;19.888;2023-10-09T12:26:03;19.01;40.02
72114;SHT31;59989;46.220;19.888;2023-10-09T12:29:05;19.47;39.98
72114;SHT31;59989;46.220;19.888;2023-10-09T12:32:13;19.70;39.64
72114;SHT31;59989;46.220;19.888;2023-10-09T12:35:19;19.74;39.78
72114;SHT31;59989;46.220;19.888;2023-10-09T12:38:22;19.54;40.99
72114;SHT31;59989;46.220;19.888;2023-10-09T12:41:25;19.63;39.97
72114;SHT31;59989;46.220;19.888;2023-10-09T12:44:30;19.49;40.85
72114;SHT31;59989;46.220;19.888;2023-10-09T12:47:32;19.61;40.77
72114;SHT31;59989;46.220;19.888;2023-10-09T12:50:36;19.37;40.89
72114;SHT31;59989;46.220;19.888;2023-10-09T12:53:44;19.42;40.94
72114;SHT31;59989;46.220;19.888;2023-10-09T12:56:49;19.24;41.56
72114;SHT31;59989;46.220;19.888;2023-10-09T12:59:52;18.99;43.13
72114;SHT31;59989;46.220;19.888;2023-10-09T13:02:55;19.05;42.97
72114;SHT31;59989;46.220;19.888;2023-10-09T13:05:57;18.84;43.95
72114;SHT31;59989;46.220;19.888;2023-10-09T13:09:00;18.69;44.41
72114;SHT31;59989;46.220;19.888;2023-10-09T13:12:09;18.55;45.03
72114;SHT31;59989;46.220;19.888;2023-10-09T13:15:21;18.48;45.05
72114;SHT31;59989;46.220;19.888;2023-10-09T13:18:23;18.29;46.48
72114;SHT31;59989;46.220;19.888;2023-10-09T13:21:27;18.29;46.54
72114;SHT31;59989;46.220;19.888;2023-10-09T13:24:36;18.24;45.31
72114;SHT31;59989;46.220;19.888;2023-10-09T13:27:42;18.48;46.46
72114;SHT31;59989;46.220;19.888;2023-10-09T13:30:48;18.53;46.46
72114;SHT31;59989;46.220;19.888;2023-10-09T13:33:54;18.65;46.08
72114;SHT31;59989;46.220;19.888;2023-10-09T13:36:57;19.13;44.27
72114;SHT31;59989;46.220;19.888;2023-10-09T13:40:03;19.45;43.86
72114;SHT31;59989;46.220;19.888;2023-10-09T13:43:12;20.08;44.57
72114;SHT31;59989;46.220;19.888;2023-10-09T13:46:19;19.71;43.87
72114;SHT31;59989;46.220;19.888;2023-10-09T13:49:22;19.53;43.91
72114;SHT31;59989;46.220;19.888;2023-10-09T13:52:45;19.26;44.80
72114;SHT31;59989;46.220;19.888;2023-10-09T13:55:47;19.50;45.21
72114;SHT31;59989;46.220;19.888;2023-10-09T13:58:51;19.82;45.20
72114;SHT31;59989;46.220;19.888;2023-10-09T14:01:55;19.74;44.83
72114;SHT31;59989;46.220;19.888;2023-10-09T14:04:58;19.60;44.18
72114;SHT31;59989;46.220;19.888;2023-10-09T14:08:03;19.73;45.01
72114;SHT31;59989;46.220;19.888;2023-10-09T14:11:08;19.56;44.49
72114;SHT31;59989;46.220;19.888;2023-10-09T14:14:15;19.24;46.80
72114;SHT31;59989;46.220;19.888;2023-10-09T14:17:23;18.85;47.52
72114;SHT31;59989;46.220;19.888;2023-10-09T14:20:27;18.65;48.66
72114;SHT31;59989;46.220;19.888;2023-10-09T14:23:38;18.55;47.97
72114;SHT31;59989;46.220;19.888;2023-10-09T14:26:42;18.37;49.39
72114;SHT31;59989;46.220;19.888;2023-10-09T14:29:48;18.32;49.97
72114;SHT31;59989;46.220;19.888;2023-10-09T14:32:50;18.34;50.71
72114;SHT31;59989;46.220;19.888;2023-10-09T14:35:58;18.38;50.84
72114;SHT31;59989;46.220;19.888;2023-10-09T14:39:01;18.17;51.45
72114;SHT31;59989;46.220;19.888;2023-10-09T14:42:05;18.05;53.63
72114;SHT31;59989;46.220;19.888;2023-10-09T14:45:12;17.85;52.78
72114;SHT31;59989;46.220;19.888;2023-10-09T14:48:21;17.74;52.51
72114;SHT31;59989;46.220;19.888;2023-10-09T14:51:31;17.79;53.50
72114;SHT31;59989;46.220;19.888;2023-10-09T14:54:34;17.69;53.08
72114;SHT31;59989;46.220;19.888;2023-10-09T14:57:36;17.67;51.74
72114;SHT31;59989;46.220;19.888;2023-10-09T15:00:39;17.54;53.25
72114;SHT31;59989;46.220;19.888;2023-10-09T15:03:48;17.41;53.96
72114;SHT31;59989;46.220;19.888;2023-10-09T15:06:55;17.45;55.98
72114;SHT31;59989;46.220;19.888;2023-10-09T15:09:59;17.39;55.79
72114;SHT31;59989;46.220;19.888;2023-10-09T15:13:06;17.31;56.77
72114;SHT31;59989;46.220;19.888;2023-10-09T15:16:08;17.20;56.50
72114;SHT31;59989;46.220;19.888;2023-10-09T15:19:14;17.09;61.57
72114;SHT31;59989;46.220;19.888;2023-10-09T15:22:18;17.03;60.45
72114;SHT31;59989;46.220;19.888;2023-10-09T15:25:23;16.91;57.09
72114;SHT31;59989;46.220;19.888;2023-10-09T15:28:26;16.89;57.53
72114;SHT31;59989;46.220;19.888;2023-10-09T15:31:35;16.77;56.23
72114;SHT31;59989;46.220;19.888;2023-10-09T15:34:37;16.76;56.96
72114;SHT31;59989;46.220;19.888;2023-10-09T15:37:41;16.70;58.21
72114;SHT31;59989;46.220;19.888;2023-10-09T15:40:43;16.58;57.76
72114;SHT31;59989;46.220;19.888;2023-10-09T15:43:46;16.44;58.07
72114;SHT31;59989;46.220;19.888;2023-10-09T15:46:49;16.35;57.91
72114;SHT31;59989;46.220;19.888;2023-10-09T15:49:52;16.32;57.78
72114;SHT31;59989;46.220;19.888;2023-10-09T15:52:56;16.25;58.85
72114;SHT31;59989;46.220;19.888;2023-10-09T15:56:01;16.17;58.85
72114;SHT31;59989;46.220;19.888;2023-10-09T15:59:03;16.10;59.03
72114;SHT31;59989;46.220;19.888;2023-10-09T16:02:07;16.04;59.46
72114;SHT31;59989;46.220;19.888;2023-10-09T16:05:10;15.98;59.68
72114;SHT31;59989;46.220;19.888;2023-10-09T16:08:14;15.89;58.63
72114;SHT31;59989;46.220;19.888;2023-10-09T16:11:20;15.83;59.37
72114;SHT31;59989;46.220;19.888;2023-10-09T16:14:26;15.73;57.93
72114;SHT31;59989;46.220;19.888;2023-10-09T16:17:28;15.73;60.18
72114;SHT31;59989;46.220;19.888;2023-10-09T16:20:31;15.63;58.36
72114;SHT31;59989;46.220;19.888;2023-10-09T16:23:34;15.59;61.85
72114;SHT31;59989;46.220;19.888;2023-10-09T16:26:38;15.49;60.97
72114;SHT31;59989;46.220;19.888;2023-10-09T16:29:53;15.40;62.00
72114;SHT31;59989;46.220;19.888;2023-10-09T16:32:56;15.42;61.01
72114;SHT31;59989;46.220;19.888;2023-10-09T16:35:58;15.35;60.54
72114;SHT31;59989;46.220;19.888;2023-10-09T16:39:03;15.35;61.75
72114;SHT31;59989;46.220;19.888;2023-10-09T16:42:05;15.26;62.39
72114;SHT31;59989;46.220;19.888;2023-10-09T16:45:12;15.26;62.40
72114;SHT31;59989;46.220;19.888;2023-10-09T16:48:20;15.18;62.67
72114;SHT31;59989;46.220;19.888;2023-10-09T16:51:23;15.15;63.89
72114;SHT31;59989;46.220;19.888;2023-10-09T16:54:27;15.08;62.28
72114;SHT31;59989;46.220;19.888;2023-10-09T16:57:29;15.05;64.39
72114;SHT31;59989;46.220;19.888;2023-10-09T17:00:32;15.05;63.07
72114;SHT31;59989;46.220;19.888;2023-10-09T17:03:41;14.98;62.26
72114;SHT31;59989;46.220;19.888;2023-10-09T17:06:45;14.92;63.35
72114;SHT31;59989;46.220;19.888;2023-10-09T17:09:53;14.85;64.62
72114;SHT31;59989;46.220;19.888;2023-10-09T17:12:58;14.77;65.00
72114;SHT31;59989;46.220;19.888;2023-10-09T17:16:03;14.63;64.38
72114;SHT31;59989;46.220;19.888;2023-10-09T17:19:05;14.55;64.72
72114;SHT31;59989;46.220;19.888;2023-10-09T17:22:08;14.53;64.08
72114;SHT31;59989;46.220;19.888;2023-10-09T17:25:14;14.55;65.98
72114;SHT31;59989;46.220;19.888;2023-10-09T17:28:19;14.49;64.75
72114;SHT31;59989;46.220;19.888;2023-10-09T17:31:22;14.40;65.24
72114;SHT31;59989;46.220;19.888;2023-10-09T17:34:29;14.26;65.60
72114;SHT31;59989;46.220;19.888;2023-10-09T17:37:38;14.18;65.97
72114;SHT31;59989;46.220;19.888;2023-10-09T17:40:45;14.18;65.19
72114;SHT31;59989;46.220;19.888;2023-10-09T17:43:54;14.19;64.45
72114;SHT31;59989;46.220;19.888;2023-10-09T17:46:57;14.19;65.13
72114;SHT31;59989;46.220;19.888;2023-10-09T17:50:05;14.23;65.96
72114;SHT31;59989;46.220;19.888;2023-10-09T17:53:13;14.23;64.31
72114;SHT31;59989;46.220;19.888;2023-10-09T17:56:16;14.29;63.98
72114;SHT31;59989;46.220;19.888;2023-10-09T17:59:21;14.30;63.86
72114;SHT31;59989;46.220;19.888;2023-10-09T18:02:24;14.34;65.50
72114;SHT31;59989;46.220;19.888;2023-10-09T18:05:31;14.34;64.93
72114;SHT31;59989;46.220;19.888;2023-10-09T18:08:35;14.39;64.91
72114;SHT31;59989;46.220;19.888;2023-10-09T18:11:39;14.34;62.79
72114;SHT31;59989;46.220;19.888;2023-10-09T18:14:43;14.37;63.28
72114;SHT31;59989;46.220;19.888;2023-10-09T18:17:45;14.37;63.05
72114;SHT31;59989;46.220;19.888;2023-10-09T18:20:48;14.34;61.58
72114;SHT31;59989;46.220;19.888;2023-10-09T18:23:52;14.26;63.13
72114;SHT31;59989;46.220;19.888;2023-10-09T18:26:58;14.29;63.60
72114;SHT31;59989;46.220;19.888;2023-10-09T18:30:01;14.18;63.35
72114;SHT31;59989;46.220;19.888;2023-10-09T18:33:04;14.10;65.24
72114;SHT31;59989;46.220;19.888;2023-10-09T18:36:08;14.02;65.65
72114;SHT31;59989;46.220;19.888;2023-10-09T18:39:10;13.95;66.02
72114;SHT31;59989;46.220;19.888;2023-10-09T18:42:15;13.88;64.59
72114;SHT31;59989;46.220;19.888;2023-10-09T18:45:18;13.82;66.58
72114;SHT31;59989;46.220;19.888;2023-10-09T18:48:20;13.86;65.92
72114;SHT31;59989;46.220;19.888;2023-10-09T18:51:29;13.81;65.87
72114;SHT31;59989;46.220;19.888;2023-10-09T18:54:33;13.75;67.11
72114;SHT31;59989;46.220;19.888;2023-10-09T18:57:39;13.71;68.00
72114;SHT31;59989;46.220;19.888;2023-10-09T19:00:42;13.61;66.17
72114;SHT31;59989;46.220;19.888;2023-10-09T19:03:52;13.60;67.01
72114;SHT31;59989;46.220;19.888;2023-10-09T19:06:55;13.64;65.28
72114;SHT31;59989;46.220;19.888;2023-10-09T19:10:00;13.71;65.17
72114;SHT31;59989;46.220;19.888;2023-10-09T19:13:04;13.68;65.85
72114;SHT31;59989;46.220;19.888;2023-10-09T19:16:09;13.65;66.11
72114;SHT31;59989;46.220;19.888;2023-10-09T19:19:12;13.65;65.42
72114;SHT31;59989;46.220;19.888;2023-10-09T19:22:15;13.61;65.56
72114;SHT31;59989;46.220;19.888;2023-10-09T19:25:18;13.62;66.60
72114;SHT31;59989;46.220;19.888;2023-10-09T19:28:28;13.64;66.85
72114;SHT31;59989;46.220;19.888;2023-10-09T19:31:31;13.67;66.89
72114;SHT31;59989;46.220;19.888;2023-10-09T19:34:34;13.70;65.10